This is the latest recevied weather packets stored in our database for station/object WC4PEM-8. If no packets are shown the sender has not sent any weather packets the latest 10 day(s).
| Time | Temp. | Humidity | Pressure | Rain* | Wind** | Luminosity | Snow |
|---|---|---|---|---|---|---|---|
| 1777650021 | 30.56° C | 56% | 1012.6 hPa | 0 mm | - | - | - |
| 1777649769 | 30.56° C | 56% | 1012.6 hPa | 0 mm | - | - | - |
| 1777649469 | 30.56° C | 56% | 1012.6 hPa | 0 mm | - | - | - |
| 1777649169 | 30° C | 56% | 1012.6 hPa | 0 mm | - | - | - |
| 1777648869 | 30° C | 59% | 1012.6 hPa | 0 mm | - | - | - |
| 1777648269 | 30° C | 60% | 1012.6 hPa | 0 mm | - | - | - |
| 1777647969 | 29.44° C | 63% | 1012.8 hPa | 0 mm | - | - | - |
| 1777647669 | 29.44° C | 61% | 1012.8 hPa | 0 mm | - | - | - |
| 1777647369 | 29.44° C | 62% | 1012.8 hPa | 0 mm | - | - | - |
| 1777647069 | 29.44° C | 65% | 1012.8 hPa | 0 mm | - | - | - |
| 1777646769 | 28.89° C | 64% | 1012.5 hPa | 0 mm | - | - | - |
| 1777646469 | 28.89° C | 65% | 1012.5 hPa | 0 mm | - | - | - |
| 1777646340 | 28.89° C | 64% | 1012.6 hPa | 0 mm | - | - | - |
| 1777646169 | 28.89° C | 64% | 1012.6 hPa | 0 mm | - | - | - |
| 1777646001 | 27.78° C | 70% | 1012.5 hPa | 0 mm | - | - | - |
| 1777645869 | 28.89° C | 66% | 1012.5 hPa | 0 mm | - | - | - |
| 1777645569 | 28.33° C | 67% | 1012.5 hPa | 0 mm | - | - | - |
| 1777645413 | 28.33° C | 67% | 1012.6 hPa | 0 mm | - | - | - |
| 1777645269 | 28.33° C | 67% | 1012.6 hPa | 0 mm | - | - | - |
| 1777644969 | 28.33° C | 66% | 1012.5 hPa | 0 mm | - | - | - |
| 1777644669 | 28.33° C | 70% | 1012.4 hPa | 0 mm | - | - | - |
| 1777644369 | 28.33° C | 69% | 1012.6 hPa | 0 mm | - | - | - |
| 1777644235 | 27.78° C | 70% | 1012.5 hPa | 0 mm | - | - | - |
| 1777644069 | 27.78° C | 70% | 1012.5 hPa | 0 mm | - | - | - |
| 1777643912 | 27.22° C | 72% | 1012.3 hPa | 0 mm | - | - | - |
* Rain latest hour (hover to see other rain measurements)
** Current wind speed in m/s (hover to see current wind gust speed)